Gilcrest, Colorado
Current Conditions -  °F | °C
As of 7:35 AM on Tuesday 21 Oct 2014 (Local Time) from KGXY Reporting Station
Clear Clear  
Wind Chill: 32°   Ceiling: Unl
Heat Index: 37°   Visibility: 10mi
Dew Point: 30°   Wind: 7mph
Humidity: 75%   Direction: 240°WSW
Pressure: 30.03"   Gusts: NA
Location:  40.28°N, 104.78°W
Report Text: KGXY 211335Z AUTO 24006KT 10SM CLR 03/M01 A3003 RMK AO1
Loading
Personal Weather Stations






























Interactive Weather Map New forecast layout! Learn more

10-Day Weather Forecast

Advertisements
Track Severe Weather on mobile